Startpagina
METAR-TAF:

METAR-TAF

Vliegvelden :

Amman, Jordanië

breedte: 31-59N, lengte: 035-59E, hoogte: 767 m

Actueel weer

Dit bericht is 41 minuten geleden gemaakt, om 09:00 UTC
Wind 7 kt uit het westzuidwesten
Temperatuur 30°C
Vochtigheid 31%
Druk 1010 hPa
Zicht: 5000 m
Heiigheid

METAR: OJAM 170900Z 24007KT 5000 HZ NSC 30/11 Q1010 NOSIG

Tijdstip: 12:41 (09:41 UTC)

Verwachting

Dit bericht is 5 uur en het 13 minuten geleden gemaakt, om 04:28 UTC
Verwachting geldig van 17 om 06 UTC tot 18 om 12 UTC
Wind 8 kt uit het westnoordwesten
Zicht: 6000 m
Heiigheid

TAF: OJAM 170428Z 1706/1812 30008KT 6000 HZ NSC

Waarnemingen en weersverwachtingen van meer dan 4000 vliegvelden (METAR en TAF).

De beschikbare stations zijn de gele en rode punten op de kaart.

Ga met uw muis naar het station om de naam te zien.

Klik dan om waarnemingen en weersverwachtingen te zien.

kaart wijzigen: klik op de groene knoppen met een zwart kruis om in te zoomen, op de groene knop met een streepje om uit te zoomen of op de groene pijlen voor aangrenzende kaarten.


METAR-TAF: